sensor_id;sensor_type;location;lat;lon;timestamp;pressure;altitude;pressure_sealevel;temperature
65823;BMP180;52585;47.566;19.056;2022-10-31T00:00:20;100996.20;;;15.50
65823;BMP180;52585;47.566;19.056;2022-10-31T00:02:45;100998.60;;;15.50
65823;BMP180;52585;47.566;19.056;2022-10-31T00:05:11;101000.20;;;15.50
65823;BMP180;52585;47.566;19.056;2022-10-31T00:07:36;101000.40;;;15.50
65823;BMP180;52585;47.566;19.056;2022-10-31T00:10:02;100999.80;;;15.50
65823;BMP180;52585;47.566;19.056;2022-10-31T00:12:28;100997.60;;;15.50
65823;BMP180;52585;47.566;19.056;2022-10-31T00:14:53;100990.60;;;15.50
65823;BMP180;52585;47.566;19.056;2022-10-31T00:17:19;100989.40;;;15.50
65823;BMP180;52585;47.566;19.056;2022-10-31T00:19:44;100987.80;;;15.50
65823;BMP180;52585;47.566;19.056;2022-10-31T00:22:10;100992.20;;;15.50
65823;BMP180;52585;47.566;19.056;2022-10-31T00:24:35;100995.60;;;15.40
65823;BMP180;52585;47.566;19.056;2022-10-31T00:27:01;100992.60;;;15.40
65823;BMP180;52585;47.566;19.056;2022-10-31T00:29:26;100992.20;;;15.40
65823;BMP180;52585;47.566;19.056;2022-10-31T00:31:52;100995.60;;;15.40
65823;BMP180;52585;47.566;19.056;2022-10-31T00:34:18;100997.20;;;15.40
65823;BMP180;52585;47.566;19.056;2022-10-31T00:36:44;100993.40;;;15.40
65823;BMP180;52585;47.566;19.056;2022-10-31T00:39:09;100990.60;;;15.40
65823;BMP180;52585;47.566;19.056;2022-10-31T00:41:35;100992.00;;;15.40
65823;BMP180;52585;47.566;19.056;2022-10-31T00:44:00;100988.40;;;15.40
65823;BMP180;52585;47.566;19.056;2022-10-31T00:46:26;100983.40;;;15.36
65823;BMP180;52585;47.566;19.056;2022-10-31T00:48:51;100986.20;;;15.30
65823;BMP180;52585;47.566;19.056;2022-10-31T00:51:17;100984.00;;;15.30
65823;BMP180;52585;47.566;19.056;2022-10-31T00:53:42;100982.00;;;15.30
65823;BMP180;52585;47.566;19.056;2022-10-31T00:56:08;100980.40;;;15.30
65823;BMP180;52585;47.566;19.056;2022-10-31T00:58:33;100984.20;;;15.30
65823;BMP180;52585;47.566;19.056;2022-10-31T01:00:59;100988.40;;;15.30
65823;BMP180;52585;47.566;19.056;2022-10-31T01:03:31;100988.00;;;15.30
65823;BMP180;52585;47.566;19.056;2022-10-31T01:06:07;100986.80;;;15.30
65823;BMP180;52585;47.566;19.056;2022-10-31T01:08:36;100981.60;;;15.30
65823;BMP180;52585;47.566;19.056;2022-10-31T01:11:23;100977.60;;;15.30
65823;BMP180;52585;47.566;19.056;2022-10-31T01:13:53;100975.20;;;15.30
65823;BMP180;52585;47.566;19.056;2022-10-31T01:16:23;100980.20;;;15.30
65823;BMP180;52585;47.566;19.056;2022-10-31T01:18:50;100976.40;;;15.30
65823;BMP180;52585;47.566;19.056;2022-10-31T01:21:23;100977.00;;;15.30
65823;BMP180;52585;47.566;19.056;2022-10-31T01:23:50;100968.40;;;15.26
65823;BMP180;52585;47.566;19.056;2022-10-31T01:26:27;100968.00;;;15.30
65823;BMP180;52585;47.566;19.056;2022-10-31T01:28:56;100970.20;;;15.30
65823;BMP180;52585;47.566;19.056;2022-10-31T01:31:27;100967.20;;;15.30
65823;BMP180;52585;47.566;19.056;2022-10-31T01:33:54;100964.20;;;15.30
65823;BMP180;52585;47.566;19.056;2022-10-31T01:36:35;100968.80;;;15.30
65823;BMP180;52585;47.566;19.056;2022-10-31T01:39:13;100965.40;;;15.30
65823;BMP180;52585;47.566;19.056;2022-10-31T01:41:43;100964.00;;;15.30
65823;BMP180;52585;47.566;19.056;2022-10-31T01:46:56;100961.40;;;15.28
65823;BMP180;52585;47.566;19.056;2022-10-31T01:49:39;100958.00;;;15.26
65823;BMP180;52585;47.566;19.056;2022-10-31T01:52:31;100958.40;;;15.28
65823;BMP180;52585;47.566;19.056;2022-10-31T01:55:25;100958.80;;;15.22
65823;BMP180;52585;47.566;19.056;2022-10-31T01:57:54;100962.20;;;15.20
65823;BMP180;52585;47.566;19.056;2022-10-31T02:00:23;100962.60;;;15.20
65823;BMP180;52585;47.566;19.056;2022-10-31T02:02:50;100961.60;;;15.20
65823;BMP180;52585;47.566;19.056;2022-10-31T02:05:22;100958.80;;;15.20
65823;BMP180;52585;47.566;19.056;2022-10-31T02:10:43;100955.60;;;15.20
65823;BMP180;52585;47.566;19.056;2022-10-31T02:13:10;100955.80;;;15.20
65823;BMP180;52585;47.566;19.056;2022-10-31T02:15:40;100957.80;;;15.20
65823;BMP180;52585;47.566;19.056;2022-10-31T02:18:07;100955.00;;;15.20
65823;BMP180;52585;47.566;19.056;2022-10-31T02:23:45;100953.20;;;15.20
65823;BMP180;52585;47.566;19.056;2022-10-31T02:34:56;100954.40;;;15.20
65823;BMP180;52585;47.566;19.056;2022-10-31T02:37:36;100954.80;;;15.10
65823;BMP180;52585;47.566;19.056;2022-10-31T02:40:51;100950.80;;;15.10
65823;BMP180;52585;47.566;19.056;2022-10-31T02:44:02;100958.20;;;15.10
65823;BMP180;52585;47.566;19.056;2022-10-31T02:46:40;100960.20;;;15.10
65823;BMP180;52585;47.566;19.056;2022-10-31T02:49:42;100964.80;;;15.10
65823;BMP180;52585;47.566;19.056;2022-10-31T02:52:25;100964.40;;;15.10
65823;BMP180;52585;47.566;19.056;2022-10-31T02:54:52;100967.20;;;15.10
65823;BMP180;52585;47.566;19.056;2022-10-31T02:57:29;100967.60;;;15.10
65823;BMP180;52585;47.566;19.056;2022-10-31T03:00:07;100969.00;;;15.10
65823;BMP180;52585;47.566;19.056;2022-10-31T03:05:59;100970.20;;;15.10
65823;BMP180;52585;47.566;19.056;2022-10-31T03:08:57;100974.40;;;15.10
65823;BMP180;52585;47.566;19.056;2022-10-31T03:11:39;100977.20;;;15.10
65823;BMP180;52585;47.566;19.056;2022-10-31T03:14:20;100980.80;;;15.08
65823;BMP180;52585;47.566;19.056;2022-10-31T03:16:54;100980.00;;;15.00
65823;BMP180;52585;47.566;19.056;2022-10-31T03:19:28;100981.20;;;15.00
65823;BMP180;52585;47.566;19.056;2022-10-31T03:24:38;100983.40;;;15.00
65823;BMP180;52585;47.566;19.056;2022-10-31T03:27:09;100986.00;;;15.00
65823;BMP180;52585;47.566;19.056;2022-10-31T03:29:37;100986.00;;;15.00
65823;BMP180;52585;47.566;19.056;2022-10-31T03:32:10;100986.80;;;15.00
65823;BMP180;52585;47.566;19.056;2022-10-31T03:34:41;100986.00;;;15.00
65823;BMP180;52585;47.566;19.056;2022-10-31T03:37:14;100985.60;;;15.00
65823;BMP180;52585;47.566;19.056;2022-10-31T03:39:45;100986.80;;;15.00
65823;BMP180;52585;47.566;19.056;2022-10-31T03:42:26;100993.20;;;15.00
65823;BMP180;52585;47.566;19.056;2022-10-31T03:45:18;100991.60;;;15.00
65823;BMP180;52585;47.566;19.056;2022-10-31T03:47:46;100992.60;;;15.00
65823;BMP180;52585;47.566;19.056;2022-10-31T03:50:15;100989.60;;;15.00
65823;BMP180;52585;47.566;19.056;2022-10-31T03:52:47;100995.60;;;15.00
65823;BMP180;52585;47.566;19.056;2022-10-31T03:55:44;100994.60;;;15.00
65823;BMP180;52585;47.566;19.056;2022-10-31T03:58:38;100996.60;;;15.00
65823;BMP180;52585;47.566;19.056;2022-10-31T04:01:09;100993.60;;;15.00
65823;BMP180;52585;47.566;19.056;2022-10-31T04:03:38;100993.60;;;15.00
65823;BMP180;52585;47.566;19.056;2022-10-31T04:06:09;100993.80;;;15.00
65823;BMP180;52585;47.566;19.056;2022-10-31T04:08:42;100988.40;;;15.00
65823;BMP180;52585;47.566;19.056;2022-10-31T04:11:11;100990.00;;;15.00
65823;BMP180;52585;47.566;19.056;2022-10-31T04:13:40;100990.60;;;14.92
65823;BMP180;52585;47.566;19.056;2022-10-31T04:16:07;100991.40;;;14.90
65823;BMP180;52585;47.566;19.056;2022-10-31T04:18:34;100994.60;;;14.90
65823;BMP180;52585;47.566;19.056;2022-10-31T04:21:07;100991.40;;;14.96
65823;BMP180;52585;47.566;19.056;2022-10-31T04:23:35;100993.00;;;15.00
65823;BMP180;52585;47.566;19.056;2022-10-31T04:26:01;100998.20;;;15.00
65823;BMP180;52585;47.566;19.056;2022-10-31T04:28:27;100999.80;;;15.00
65823;BMP180;52585;47.566;19.056;2022-10-31T04:30:53;101004.00;;;15.00
65823;BMP180;52585;47.566;19.056;2022-10-31T04:33:19;101001.20;;;14.98
65823;BMP180;52585;47.566;19.056;2022-10-31T04:35:45;101001.20;;;14.96
65823;BMP180;52585;47.566;19.056;2022-10-31T04:38:10;101003.80;;;14.98
65823;BMP180;52585;47.566;19.056;2022-10-31T04:40:36;101005.80;;;15.00
65823;BMP180;52585;47.566;19.056;2022-10-31T04:43:01;101002.00;;;14.90
65823;BMP180;52585;47.566;19.056;2022-10-31T04:45:27;101007.20;;;14.92
65823;BMP180;52585;47.566;19.056;2022-10-31T04:47:52;101003.60;;;14.90
65823;BMP180;52585;47.566;19.056;2022-10-31T04:50:18;101009.80;;;14.90
65823;BMP180;52585;47.566;19.056;2022-10-31T04:52:45;101010.60;;;14.90
65823;BMP180;52585;47.566;19.056;2022-10-31T04:55:13;101013.40;;;14.90
65823;BMP180;52585;47.566;19.056;2022-10-31T04:57:43;101010.40;;;14.90
65823;BMP180;52585;47.566;19.056;2022-10-31T05:00:12;101018.60;;;14.90
65823;BMP180;52585;47.566;19.056;2022-10-31T05:02:53;101006.40;;;14.90
65823;BMP180;52585;47.566;19.056;2022-10-31T05:05:25;100996.20;;;14.90
65823;BMP180;52585;47.566;19.056;2022-10-31T05:07:52;101013.00;;;14.90
65823;BMP180;52585;47.566;19.056;2022-10-31T05:10:23;101017.60;;;14.90
65823;BMP180;52585;47.566;19.056;2022-10-31T05:12:58;101016.00;;;14.90
65823;BMP180;52585;47.566;19.056;2022-10-31T05:15:27;101013.80;;;14.88
65823;BMP180;52585;47.566;19.056;2022-10-31T05:17:54;101004.00;;;14.86
65823;BMP180;52585;47.566;19.056;2022-10-31T05:20:24;101018.20;;;14.82
65823;BMP180;52585;47.566;19.056;2022-10-31T05:22:52;101013.80;;;14.80
65823;BMP180;52585;47.566;19.056;2022-10-31T05:25:20;101017.40;;;14.80
65823;BMP180;52585;47.566;19.056;2022-10-31T05:27:49;101017.20;;;14.80
65823;BMP180;52585;47.566;19.056;2022-10-31T05:30:19;101022.40;;;14.88
65823;BMP180;52585;47.566;19.056;2022-10-31T05:32:47;101034.40;;;14.86
65823;BMP180;52585;47.566;19.056;2022-10-31T05:35:19;101031.40;;;14.86
65823;BMP180;52585;47.566;19.056;2022-10-31T05:37:45;101032.20;;;14.82
65823;BMP180;52585;47.566;19.056;2022-10-31T05:40:13;101029.80;;;14.80
65823;BMP180;52585;47.566;19.056;2022-10-31T05:42:41;101037.20;;;14.80
65823;BMP180;52585;47.566;19.056;2022-10-31T05:45:14;101027.20;;;14.80
65823;BMP180;52585;47.566;19.056;2022-10-31T05:47:39;101023.40;;;14.80
65823;BMP180;52585;47.566;19.056;2022-10-31T05:50:06;101024.20;;;14.80
65823;BMP180;52585;47.566;19.056;2022-10-31T05:52:32;101025.00;;;14.80
65823;BMP180;52585;47.566;19.056;2022-10-31T05:54:57;101027.40;;;14.82
65823;BMP180;52585;47.566;19.056;2022-10-31T05:57:23;101023.00;;;14.84
65823;BMP180;52585;47.566;19.056;2022-10-31T05:59:49;101022.00;;;14.86
65823;BMP180;52585;47.566;19.056;2022-10-31T06:02:19;101028.60;;;14.84
65823;BMP180;52585;47.566;19.056;2022-10-31T06:04:45;101031.20;;;14.86
65823;BMP180;52585;47.566;19.056;2022-10-31T06:07:10;101025.60;;;14.88
65823;BMP180;52585;47.566;19.056;2022-10-31T06:09:35;101028.00;;;14.86
65823;BMP180;52585;47.566;19.056;2022-10-31T06:12:01;101022.40;;;14.82
65823;BMP180;52585;47.566;19.056;2022-10-31T06:14:27;101027.60;;;14.84
65823;BMP180;52585;47.566;19.056;2022-10-31T06:16:55;101028.80;;;14.80
65823;BMP180;52585;47.566;19.056;2022-10-31T06:19:20;101018.20;;;14.88
65823;BMP180;52585;47.566;19.056;2022-10-31T06:21:46;101019.60;;;14.90
65823;BMP180;52585;47.566;19.056;2022-10-31T06:24:11;101032.40;;;14.90
65823;BMP180;52585;47.566;19.056;2022-10-31T06:26:37;101030.20;;;14.90
65823;BMP180;52585;47.566;19.056;2022-10-31T06:29:02;101042.40;;;14.88
65823;BMP180;52585;47.566;19.056;2022-10-31T06:31:28;101045.60;;;14.80
65823;BMP180;52585;47.566;19.056;2022-10-31T06:33:53;101055.80;;;14.80
65823;BMP180;52585;47.566;19.056;2022-10-31T06:36:19;101061.00;;;14.80
65823;BMP180;52585;47.566;19.056;2022-10-31T06:38:44;101055.80;;;14.82
65823;BMP180;52585;47.566;19.056;2022-10-31T06:41:10;101069.80;;;14.82
65823;BMP180;52585;47.566;19.056;2022-10-31T06:43:35;101060.20;;;14.82
65823;BMP180;52585;47.566;19.056;2022-10-31T06:46:05;101065.00;;;14.88
65823;BMP180;52585;47.566;19.056;2022-10-31T06:48:31;101067.40;;;14.90
65823;BMP180;52585;47.566;19.056;2022-10-31T06:50:58;101061.60;;;14.90
65823;BMP180;52585;47.566;19.056;2022-10-31T06:53:28;101062.40;;;14.90
65823;BMP180;52585;47.566;19.056;2022-10-31T06:55:57;101057.80;;;14.90
65823;BMP180;52585;47.566;19.056;2022-10-31T06:58:22;101058.80;;;14.86
65823;BMP180;52585;47.566;19.056;2022-10-31T07:00:48;101060.40;;;14.82
65823;BMP180;52585;47.566;19.056;2022-10-31T07:03:15;101061.40;;;14.80
65823;BMP180;52585;47.566;19.056;2022-10-31T07:05:42;101063.40;;;14.80
65823;BMP180;52585;47.566;19.056;2022-10-31T07:08:11;101065.20;;;14.86
65823;BMP180;52585;47.566;19.056;2022-10-31T07:10:39;101060.60;;;14.90
65823;BMP180;52585;47.566;19.056;2022-10-31T07:13:10;101061.80;;;14.90
65823;BMP180;52585;47.566;19.056;2022-10-31T07:15:38;101062.00;;;14.90
65823;BMP180;52585;47.566;19.056;2022-10-31T07:18:06;101066.60;;;14.90
65823;BMP180;52585;47.566;19.056;2022-10-31T07:20:33;101066.00;;;14.90
65823;BMP180;52585;47.566;19.056;2022-10-31T07:22:59;101065.80;;;14.90
65823;BMP180;52585;47.566;19.056;2022-10-31T07:25:26;101072.40;;;14.90
65823;BMP180;52585;47.566;19.056;2022-10-31T07:27:52;101075.20;;;14.90
65823;BMP180;52585;47.566;19.056;2022-10-31T07:30:18;101079.00;;;14.90
65823;BMP180;52585;47.566;19.056;2022-10-31T07:32:47;101079.60;;;14.90
65823;BMP180;52585;47.566;19.056;2022-10-31T07:35:16;101078.60;;;14.90
65823;BMP180;52585;47.566;19.056;2022-10-31T07:37:42;101075.00;;;14.90
65823;BMP180;52585;47.566;19.056;2022-10-31T07:40:09;101084.00;;;14.90
65823;BMP180;52585;47.566;19.056;2022-10-31T07:42:41;101084.00;;;14.90
65823;BMP180;52585;47.566;19.056;2022-10-31T07:45:10;101081.40;;;14.90
65823;BMP180;52585;47.566;19.056;2022-10-31T07:47:45;101086.20;;;14.90
65823;BMP180;52585;47.566;19.056;2022-10-31T07:50:18;101084.20;;;14.90
65823;BMP180;52585;47.566;19.056;2022-10-31T07:52:44;101087.80;;;14.88
65823;BMP180;52585;47.566;19.056;2022-10-31T07:55:11;101085.40;;;14.82
65823;BMP180;52585;47.566;19.056;2022-10-31T07:57:37;101084.20;;;14.80
65823;BMP180;52585;47.566;19.056;2022-10-31T08:00:05;101085.60;;;14.80
65823;BMP180;52585;47.566;19.056;2022-10-31T08:02:31;101083.40;;;14.82
65823;BMP180;52585;47.566;19.056;2022-10-31T08:04:57;101085.80;;;14.86
65823;BMP180;52585;47.566;19.056;2022-10-31T08:07:22;101082.20;;;14.90
65823;BMP180;52585;47.566;19.056;2022-10-31T08:09:48;101086.60;;;14.90
65823;BMP180;52585;47.566;19.056;2022-10-31T08:12:13;101084.60;;;14.90
65823;BMP180;52585;47.566;19.056;2022-10-31T08:14:39;101087.20;;;14.90
65823;BMP180;52585;47.566;19.056;2022-10-31T08:17:04;101090.40;;;14.90
65823;BMP180;52585;47.566;19.056;2022-10-31T08:19:30;101086.80;;;14.88
65823;BMP180;52585;47.566;19.056;2022-10-31T08:21:55;101092.20;;;14.88
65823;BMP180;52585;47.566;19.056;2022-10-31T08:24:21;101094.00;;;14.88
65823;BMP180;52585;47.566;19.056;2022-10-31T08:26:48;101095.00;;;14.88
65823;BMP180;52585;47.566;19.056;2022-10-31T08:29:13;101093.40;;;14.90
65823;BMP180;52585;47.566;19.056;2022-10-31T08:31:41;101097.80;;;14.90
65823;BMP180;52585;47.566;19.056;2022-10-31T08:34:06;101098.40;;;14.90
65823;BMP180;52585;47.566;19.056;2022-10-31T08:36:32;101101.00;;;14.90
65823;BMP180;52585;47.566;19.056;2022-10-31T08:38:58;101094.00;;;14.90
65823;BMP180;52585;47.566;19.056;2022-10-31T08:41:23;101093.20;;;14.90
65823;BMP180;52585;47.566;19.056;2022-10-31T08:43:49;101092.00;;;14.90
65823;BMP180;52585;47.566;19.056;2022-10-31T08:46:15;101092.40;;;14.82
65823;BMP180;52585;47.566;19.056;2022-10-31T08:48:41;101092.80;;;14.80
65823;BMP180;52585;47.566;19.056;2022-10-31T08:51:06;101090.60;;;14.80
65823;BMP180;52585;47.566;19.056;2022-10-31T08:53:32;101089.60;;;14.88
65823;BMP180;52585;47.566;19.056;2022-10-31T08:55:57;101091.60;;;14.90
65823;BMP180;52585;47.566;19.056;2022-10-31T08:58:24;101096.80;;;14.90
65823;BMP180;52585;47.566;19.056;2022-10-31T09:00:53;101097.60;;;14.90
65823;BMP180;52585;47.566;19.056;2022-10-31T09:03:29;101097.60;;;14.90
65823;BMP180;52585;47.566;19.056;2022-10-31T09:05:59;101102.40;;;14.90
65823;BMP180;52585;47.566;19.056;2022-10-31T09:08:25;101106.80;;;14.90
65823;BMP180;52585;47.566;19.056;2022-10-31T09:10:52;101106.60;;;14.92
65823;BMP180;52585;47.566;19.056;2022-10-31T09:13:21;101109.60;;;15.00
65823;BMP180;52585;47.566;19.056;2022-10-31T09:15:49;101108.00;;;15.00
65823;BMP180;52585;47.566;19.056;2022-10-31T09:18:21;101110.20;;;15.00
65823;BMP180;52585;47.566;19.056;2022-10-31T09:20:48;101107.20;;;15.00
65823;BMP180;52585;47.566;19.056;2022-10-31T09:23:19;101105.20;;;15.00
65823;BMP180;52585;47.566;19.056;2022-10-31T09:25:46;101111.80;;;15.06
65823;BMP180;52585;47.566;19.056;2022-10-31T09:28:15;101111.20;;;15.08
65823;BMP180;52585;47.566;19.056;2022-10-31T09:30:42;101111.00;;;15.08
65823;BMP180;52585;47.566;19.056;2022-10-31T09:33:12;101109.80;;;15.06
65823;BMP180;52585;47.566;19.056;2022-10-31T09:35:40;101105.00;;;15.04
65823;BMP180;52585;47.566;19.056;2022-10-31T09:38:13;101107.60;;;15.04
65823;BMP180;52585;47.566;19.056;2022-10-31T09:40:46;101111.60;;;15.08
65823;BMP180;52585;47.566;19.056;2022-10-31T09:46:03;101115.80;;;15.10
65823;BMP180;52585;47.566;19.056;2022-10-31T09:51:48;101115.40;;;15.10
65823;BMP180;52585;47.566;19.056;2022-10-31T09:54:44;101113.40;;;15.10
65823;BMP180;52585;47.566;19.056;2022-10-31T09:57:17;101108.80;;;15.10
65823;BMP180;52585;47.566;19.056;2022-10-31T09:59:47;101108.60;;;15.10
65823;BMP180;52585;47.566;19.056;2022-10-31T10:04:53;101104.40;;;15.10
65823;BMP180;52585;47.566;19.056;2022-10-31T10:07:55;101105.40;;;15.10
65823;BMP180;52585;47.566;19.056;2022-10-31T10:15:55;101100.60;;;15.10
65823;BMP180;52585;47.566;19.056;2022-10-31T10:24:29;101101.40;;;15.20
65823;BMP180;52585;47.566;19.056;2022-10-31T10:29:47;101098.80;;;15.14
65823;BMP180;52585;47.566;19.056;2022-10-31T10:32:29;101097.20;;;15.14
65823;BMP180;52585;47.566;19.056;2022-10-31T10:35:13;101094.60;;;15.12
65823;BMP180;52585;47.566;19.056;2022-10-31T10:37:44;101092.80;;;15.14
65823;BMP180;52585;47.566;19.056;2022-10-31T10:40:20;101090.20;;;15.16
65823;BMP180;52585;47.566;19.056;2022-10-31T10:49:40;101086.40;;;15.18
65823;BMP180;52585;47.566;19.056;2022-10-31T10:55:36;101085.80;;;15.18
65823;BMP180;52585;47.566;19.056;2022-10-31T10:58:07;101086.60;;;15.12
65823;BMP180;52585;47.566;19.056;2022-10-31T11:00:45;101083.40;;;15.14
65823;BMP180;52585;47.566;19.056;2022-10-31T11:03:14;101086.00;;;15.16
65823;BMP180;52585;47.566;19.056;2022-10-31T11:08:28;101077.00;;;15.20
65823;BMP180;52585;47.566;19.056;2022-10-31T11:13:59;101076.60;;;15.20
65823;BMP180;52585;47.566;19.056;2022-10-31T11:16:37;101075.60;;;15.20
65823;BMP180;52585;47.566;19.056;2022-10-31T11:21:37;101076.00;;;15.20
65823;BMP180;52585;47.566;19.056;2022-10-31T11:24:15;101075.40;;;15.20
65823;BMP180;52585;47.566;19.056;2022-10-31T11:26:44;101067.80;;;15.20
65823;BMP180;52585;47.566;19.056;2022-10-31T11:29:23;101068.20;;;15.20
65823;BMP180;52585;47.566;19.056;2022-10-31T11:31:53;101068.60;;;15.20
65823;BMP180;52585;47.566;19.056;2022-10-31T11:34:32;101062.60;;;15.20
65823;BMP180;52585;47.566;19.056;2022-10-31T11:37:25;101062.60;;;15.22
65823;BMP180;52585;47.566;19.056;2022-10-31T11:39:58;101055.80;;;15.22
65823;BMP180;52585;47.566;19.056;2022-10-31T11:42:30;101054.40;;;15.28
65823;BMP180;52585;47.566;19.056;2022-10-31T11:45:12;101047.40;;;15.28
65823;BMP180;52585;47.566;19.056;2022-10-31T11:47:46;101049.60;;;15.20
65823;BMP180;52585;47.566;19.056;2022-10-31T11:50:25;101051.20;;;15.26
65823;BMP180;52585;47.566;19.056;2022-10-31T11:52:52;101052.60;;;15.26
65823;BMP180;52585;47.566;19.056;2022-10-31T11:57:57;101060.40;;;15.22
65823;BMP180;52585;47.566;19.056;2022-10-31T12:00:30;101059.60;;;15.26
65823;BMP180;52585;47.566;19.056;2022-10-31T12:03:41;101059.40;;;15.28
65823;BMP180;52585;47.566;19.056;2022-10-31T12:06:34;101057.60;;;15.28
65823;BMP180;52585;47.566;19.056;2022-10-31T12:09:00;101061.80;;;15.28
65823;BMP180;52585;47.566;19.056;2022-10-31T12:23:03;101055.20;;;15.20
65823;BMP180;52585;47.566;19.056;2022-10-31T12:28:57;101068.80;;;15.20
65823;BMP180;52585;47.566;19.056;2022-10-31T12:35:49;101059.40;;;15.22
65823;BMP180;52585;47.566;19.056;2022-10-31T12:41:01;101061.80;;;15.20
65823;BMP180;52585;47.566;19.056;2022-10-31T12:43:48;101057.00;;;15.20
65823;BMP180;52585;47.566;19.056;2022-10-31T12:47:18;101055.40;;;15.20
65823;BMP180;52585;47.566;19.056;2022-10-31T12:58:30;101048.80;;;15.26
65823;BMP180;52585;47.566;19.056;2022-10-31T13:01:28;101049.20;;;15.28
65823;BMP180;52585;47.566;19.056;2022-10-31T13:04:20;101048.20;;;15.30
65823;BMP180;52585;47.566;19.056;2022-10-31T13:06:55;101045.40;;;15.30
65823;BMP180;52585;47.566;19.056;2022-10-31T13:12:38;101044.60;;;15.30
65823;BMP180;52585;47.566;19.056;2022-10-31T13:15:19;101040.60;;;15.30
65823;BMP180;52585;47.566;19.056;2022-10-31T13:17:57;101043.60;;;15.30
65823;BMP180;52585;47.566;19.056;2022-10-31T13:20:31;101039.40;;;15.28
65823;BMP180;52585;47.566;19.056;2022-10-31T13:23:22;101037.80;;;15.28
65823;BMP180;52585;47.566;19.056;2022-10-31T13:25:55;101041.20;;;15.28
65823;BMP180;52585;47.566;19.056;2022-10-31T13:28:37;101042.40;;;15.28
65823;BMP180;52585;47.566;19.056;2022-10-31T13:31:05;101041.20;;;15.26
65823;BMP180;52585;47.566;19.056;2022-10-31T13:33:59;101045.20;;;15.26
65823;BMP180;52585;47.566;19.056;2022-10-31T13:36:55;101042.00;;;15.22
65823;BMP180;52585;47.566;19.056;2022-10-31T13:39:45;101042.80;;;15.22
65823;BMP180;52585;47.566;19.056;2022-10-31T13:42:49;101043.00;;;15.24
65823;BMP180;52585;47.566;19.056;2022-10-31T13:45:23;101044.60;;;15.22
65823;BMP180;52585;47.566;19.056;2022-10-31T13:50:42;101037.60;;;15.30
65823;BMP180;52585;47.566;19.056;2022-10-31T13:53:22;101038.20;;;15.22
65823;BMP180;52585;47.566;19.056;2022-10-31T13:56:03;101036.20;;;15.24
65823;BMP180;52585;47.566;19.056;2022-10-31T13:58:31;101043.80;;;15.22
65823;BMP180;52585;47.566;19.056;2022-10-31T14:01:04;101038.80;;;15.20
65823;BMP180;52585;47.566;19.056;2022-10-31T14:03:33;101044.00;;;15.20
65823;BMP180;52585;47.566;19.056;2022-10-31T14:06:00;101044.60;;;15.20
65823;BMP180;52585;47.566;19.056;2022-10-31T14:08:28;101040.80;;;15.20
65823;BMP180;52585;47.566;19.056;2022-10-31T14:10:56;101041.80;;;15.20
65823;BMP180;52585;47.566;19.056;2022-10-31T14:13:33;101039.20;;;15.20
65823;BMP180;52585;47.566;19.056;2022-10-31T14:16:21;101033.80;;;15.20
65823;BMP180;52585;47.566;19.056;2022-10-31T14:19:03;101036.80;;;15.20
65823;BMP180;52585;47.566;19.056;2022-10-31T14:21:37;101036.60;;;15.20
65823;BMP180;52585;47.566;19.056;2022-10-31T14:29:49;101035.80;;;15.14
65823;BMP180;52585;47.566;19.056;2022-10-31T14:32:23;101037.60;;;15.16
65823;BMP180;52585;47.566;19.056;2022-10-31T14:34:56;101035.40;;;15.12
65823;BMP180;52585;47.566;19.056;2022-10-31T14:40:33;101035.40;;;15.16
65823;BMP180;52585;47.566;19.056;2022-10-31T14:46:15;101034.00;;;15.10
65823;BMP180;52585;47.566;19.056;2022-10-31T14:51:55;101035.20;;;15.10
65823;BMP180;52585;47.566;19.056;2022-10-31T14:54:48;101036.60;;;15.10
65823;BMP180;52585;47.566;19.056;2022-10-31T14:57:24;101041.60;;;15.10
65823;BMP180;52585;47.566;19.056;2022-10-31T15:00:00;101039.60;;;15.10
65823;BMP180;52585;47.566;19.056;2022-10-31T15:02:30;101042.40;;;15.10
65823;BMP180;52585;47.566;19.056;2022-10-31T15:05:01;101037.40;;;15.10
65823;BMP180;52585;47.566;19.056;2022-10-31T15:07:27;101034.80;;;15.10
65823;BMP180;52585;47.566;19.056;2022-10-31T15:12:34;101028.00;;;15.10
65823;BMP180;52585;47.566;19.056;2022-10-31T15:17:46;101030.20;;;15.10
65823;BMP180;52585;47.566;19.056;2022-10-31T15:20:21;101029.00;;;15.08
65823;BMP180;52585;47.566;19.056;2022-10-31T15:22:49;101026.20;;;15.06
65823;BMP180;52585;47.566;19.056;2022-10-31T15:25:21;101026.80;;;15.08
65823;BMP180;52585;47.566;19.056;2022-10-31T15:27:52;101029.80;;;15.10
65823;BMP180;52585;47.566;19.056;2022-10-31T15:30:29;101034.60;;;15.10
65823;BMP180;52585;47.566;19.056;2022-10-31T15:32:54;101031.20;;;15.10
65823;BMP180;52585;47.566;19.056;2022-10-31T15:35:27;101031.00;;;15.10
65823;BMP180;52585;47.566;19.056;2022-10-31T15:37:53;101033.40;;;15.10
65823;BMP180;52585;47.566;19.056;2022-10-31T15:40:23;101033.20;;;15.10
65823;BMP180;52585;47.566;19.056;2022-10-31T15:43:03;101035.40;;;15.10
65823;BMP180;52585;47.566;19.056;2022-10-31T15:45:31;101038.40;;;15.04
65823;BMP180;52585;47.566;19.056;2022-10-31T15:48:18;101038.40;;;15.00
65823;BMP180;52585;47.566;19.056;2022-10-31T15:50:51;101046.40;;;15.08
65823;BMP180;52585;47.566;19.056;2022-10-31T15:53:23;101045.80;;;15.08
65823;BMP180;52585;47.566;19.056;2022-10-31T15:55:59;101046.40;;;15.10
65823;BMP180;52585;47.566;19.056;2022-10-31T15:58:27;101048.40;;;15.08
65823;BMP180;52585;47.566;19.056;2022-10-31T16:01:04;101054.80;;;15.10
65823;BMP180;52585;47.566;19.056;2022-10-31T16:03:33;101051.20;;;15.06
65823;BMP180;52585;47.566;19.056;2022-10-31T16:06:04;101054.60;;;15.00
65823;BMP180;52585;47.566;19.056;2022-10-31T16:13:51;101060.20;;;15.00
65823;BMP180;52585;47.566;19.056;2022-10-31T16:16:18;101057.80;;;15.00
65823;BMP180;52585;47.566;19.056;2022-10-31T16:18:46;101065.20;;;15.00